sensor_id;sensor_type;location;lat;lon;timestamp;temperature;humidity
55634;DHT22;41504;53.162;6.788;2023-05-10T00:01:34;14.50;96.70
55634;DHT22;41504;53.162;6.788;2023-05-10T00:04:00;14.50;96.70
55634;DHT22;41504;53.162;6.788;2023-05-10T00:06:26;14.40;96.50
55634;DHT22;41504;53.162;6.788;2023-05-10T00:08:52;14.30;96.60
55634;DHT22;41504;53.162;6.788;2023-05-10T00:11:20;14.30;96.50
55634;DHT22;41504;53.162;6.788;2023-05-10T00:13:46;14.30;96.50
55634;DHT22;41504;53.162;6.788;2023-05-10T00:16:13;14.30;96.50
55634;DHT22;41504;53.162;6.788;2023-05-10T00:18:39;14.20;96.40
55634;DHT22;41504;53.162;6.788;2023-05-10T00:21:05;14.10;96.30
55634;DHT22;41504;53.162;6.788;2023-05-10T00:23:31;14.10;96.40
55634;DHT22;41504;53.162;6.788;2023-05-10T00:25:57;14.10;96.40
55634;DHT22;41504;53.162;6.788;2023-05-10T00:28:23;14.00;96.40
55634;DHT22;41504;53.162;6.788;2023-05-10T00:30:49;14.00;96.40
55634;DHT22;41504;53.162;6.788;2023-05-10T00:33:14;14.00;96.40
55634;DHT22;41504;53.162;6.788;2023-05-10T00:35:40;13.90;96.40
55634;DHT22;41504;53.162;6.788;2023-05-10T00:38:06;13.90;96.40
55634;DHT22;41504;53.162;6.788;2023-05-10T00:40:32;13.80;96.40
55634;DHT22;41504;53.162;6.788;2023-05-10T00:42:58;13.80;96.40
55634;DHT22;41504;53.162;6.788;2023-05-10T00:45:26;13.80;96.50
55634;DHT22;41504;53.162;6.788;2023-05-10T00:47:55;13.80;96.60
55634;DHT22;41504;53.162;6.788;2023-05-10T00:50:24;13.80;96.60
55634;DHT22;41504;53.162;6.788;2023-05-10T00:52:53;13.80;96.50
55634;DHT22;41504;53.162;6.788;2023-05-10T00:55:19;13.80;96.50
55634;DHT22;41504;53.162;6.788;2023-05-10T00:57:45;13.70;96.50
55634;DHT22;41504;53.162;6.788;2023-05-10T01:00:12;13.80;96.50
55634;DHT22;41504;53.162;6.788;2023-05-10T01:02:38;13.70;96.40
55634;DHT22;41504;53.162;6.788;2023-05-10T01:05:07;13.70;96.50
55634;DHT22;41504;53.162;6.788;2023-05-10T01:07:33;13.70;96.40
55634;DHT22;41504;53.162;6.788;2023-05-10T01:09:58;13.70;96.40
55634;DHT22;41504;53.162;6.788;2023-05-10T01:12:24;13.70;96.50
55634;DHT22;41504;53.162;6.788;2023-05-10T01:14:50;13.70;96.50
55634;DHT22;41504;53.162;6.788;2023-05-10T01:17:16;13.70;96.50
55634;DHT22;41504;53.162;6.788;2023-05-10T01:19:42;13.70;96.40
55634;DHT22;41504;53.162;6.788;2023-05-10T01:30:44;13.60;96.50
55634;DHT22;41504;53.162;6.788;2023-05-10T01:36:08;13.60;96.40
55634;DHT22;41504;53.162;6.788;2023-05-10T01:38:59;13.60;96.40
55634;DHT22;41504;53.162;6.788;2023-05-10T01:41:36;13.60;96.50
55634;DHT22;41504;53.162;6.788;2023-05-10T01:44:10;13.50;96.60
55634;DHT22;41504;53.162;6.788;2023-05-10T01:46:38;13.50;96.60
55634;DHT22;41504;53.162;6.788;2023-05-10T01:49:11;13.50;96.60
55634;DHT22;41504;53.162;6.788;2023-05-10T01:51:45;13.50;96.60
55634;DHT22;41504;53.162;6.788;2023-05-10T01:54:12;13.50;96.60
55634;DHT22;41504;53.162;6.788;2023-05-10T01:56:39;13.50;96.50
55634;DHT22;41504;53.162;6.788;2023-05-10T01:59:11;13.50;96.70
55634;DHT22;41504;53.162;6.788;2023-05-10T02:01:38;13.50;96.60
55634;DHT22;41504;53.162;6.788;2023-05-10T02:04:06;13.50;96.60
55634;DHT22;41504;53.162;6.788;2023-05-10T02:06:33;13.50;96.60
55634;DHT22;41504;53.162;6.788;2023-05-10T02:09:01;13.50;96.60
55634;DHT22;41504;53.162;6.788;2023-05-10T02:11:28;13.50;96.70
55634;DHT22;41504;53.162;6.788;2023-05-10T02:13:55;13.50;96.70
55634;DHT22;41504;53.162;6.788;2023-05-10T02:16:24;13.50;96.70
55634;DHT22;41504;53.162;6.788;2023-05-10T02:18:52;13.50;96.60
55634;DHT22;41504;53.162;6.788;2023-05-10T02:21:19;13.40;96.60
55634;DHT22;41504;53.162;6.788;2023-05-10T02:23:46;13.40;96.60
55634;DHT22;41504;53.162;6.788;2023-05-10T02:26:14;13.30;96.60
55634;DHT22;41504;53.162;6.788;2023-05-10T02:28:40;13.30;96.50
55634;DHT22;41504;53.162;6.788;2023-05-10T02:31:08;13.20;96.60
55634;DHT22;41504;53.162;6.788;2023-05-10T02:33:40;13.20;96.60
55634;DHT22;41504;53.162;6.788;2023-05-10T02:36:08;13.30;96.70
55634;DHT22;41504;53.162;6.788;2023-05-10T02:38:34;13.20;96.70
55634;DHT22;41504;53.162;6.788;2023-05-10T02:41:02;13.20;96.70
55634;DHT22;41504;53.162;6.788;2023-05-10T02:43:30;13.20;96.70
55634;DHT22;41504;53.162;6.788;2023-05-10T02:45:57;13.20;96.60
55634;DHT22;41504;53.162;6.788;2023-05-10T02:48:23;13.20;96.70
55634;DHT22;41504;53.162;6.788;2023-05-10T02:50:51;13.20;96.70
55634;DHT22;41504;53.162;6.788;2023-05-10T02:53:31;13.20;96.80
55634;DHT22;41504;53.162;6.788;2023-05-10T02:56:16;13.20;96.70
55634;DHT22;41504;53.162;6.788;2023-05-10T02:58:45;13.20;96.70
55634;DHT22;41504;53.162;6.788;2023-05-10T03:01:11;13.20;96.70
55634;DHT22;41504;53.162;6.788;2023-05-10T03:03:37;13.20;96.70
55634;DHT22;41504;53.162;6.788;2023-05-10T03:06:03;13.20;96.70
55634;DHT22;41504;53.162;6.788;2023-05-10T03:08:32;13.20;96.60
55634;DHT22;41504;53.162;6.788;2023-05-10T03:17:04;13.20;96.60
55634;DHT22;41504;53.162;6.788;2023-05-10T03:19:43;13.20;96.70
55634;DHT22;41504;53.162;6.788;2023-05-10T03:22:13;13.20;96.70
55634;DHT22;41504;53.162;6.788;2023-05-10T03:24:44;13.20;96.70
55634;DHT22;41504;53.162;6.788;2023-05-10T03:27:11;13.20;96.70
55634;DHT22;41504;53.162;6.788;2023-05-10T03:29:38;13.20;96.80
55634;DHT22;41504;53.162;6.788;2023-05-10T03:32:07;13.20;97.00
55634;DHT22;41504;53.162;6.788;2023-05-10T03:34:33;13.20;96.70
55634;DHT22;41504;53.162;6.788;2023-05-10T03:36:59;13.20;96.70
55634;DHT22;41504;53.162;6.788;2023-05-10T03:39:24;13.10;96.70
55634;DHT22;41504;53.162;6.788;2023-05-10T03:41:50;13.10;96.70
55634;DHT22;41504;53.162;6.788;2023-05-10T03:44:16;13.10;96.80
55634;DHT22;41504;53.162;6.788;2023-05-10T03:46:42;13.10;96.70
55634;DHT22;41504;53.162;6.788;2023-05-10T03:49:07;13.10;96.80
55634;DHT22;41504;53.162;6.788;2023-05-10T03:51:33;13.10;96.80
55634;DHT22;41504;53.162;6.788;2023-05-10T03:53:59;13.10;96.90
55634;DHT22;41504;53.162;6.788;2023-05-10T03:56:24;13.10;96.90
55634;DHT22;41504;53.162;6.788;2023-05-10T03:58:50;13.10;96.90
55634;DHT22;41504;53.162;6.788;2023-05-10T04:01:16;13.10;96.80
55634;DHT22;41504;53.162;6.788;2023-05-10T04:03:41;13.10;96.80
55634;DHT22;41504;53.162;6.788;2023-05-10T04:06:07;13.20;96.80
55634;DHT22;41504;53.162;6.788;2023-05-10T04:08:36;13.10;96.80
55634;DHT22;41504;53.162;6.788;2023-05-10T04:11:09;13.10;96.80
55634;DHT22;41504;53.162;6.788;2023-05-10T04:13:35;13.10;96.80
55634;DHT22;41504;53.162;6.788;2023-05-10T04:16:01;13.10;96.90
55634;DHT22;41504;53.162;6.788;2023-05-10T04:18:27;13.10;96.80
55634;DHT22;41504;53.162;6.788;2023-05-10T04:20:52;13.10;96.90
55634;DHT22;41504;53.162;6.788;2023-05-10T04:23:18;13.10;96.90
55634;DHT22;41504;53.162;6.788;2023-05-10T04:25:44;13.10;96.80
55634;DHT22;41504;53.162;6.788;2023-05-10T04:28:10;13.10;96.80
55634;DHT22;41504;53.162;6.788;2023-05-10T04:30:35;13.10;96.80
55634;DHT22;41504;53.162;6.788;2023-05-10T04:33:01;13.10;96.80
55634;DHT22;41504;53.162;6.788;2023-05-10T04:35:30;13.10;96.80
55634;DHT22;41504;53.162;6.788;2023-05-10T04:37:55;13.10;96.90
55634;DHT22;41504;53.162;6.788;2023-05-10T04:40:21;13.10;96.80
55634;DHT22;41504;53.162;6.788;2023-05-10T04:42:47;13.10;97.00
55634;DHT22;41504;53.162;6.788;2023-05-10T04:45:13;13.10;96.80
55634;DHT22;41504;53.162;6.788;2023-05-10T04:47:40;13.00;96.80
55634;DHT22;41504;53.162;6.788;2023-05-10T04:50:06;13.00;96.80
55634;DHT22;41504;53.162;6.788;2023-05-10T04:52:32;13.00;96.90
55634;DHT22;41504;53.162;6.788;2023-05-10T04:54:58;13.00;97.00
55634;DHT22;41504;53.162;6.788;2023-05-10T04:57:24;13.00;97.00
55634;DHT22;41504;53.162;6.788;2023-05-10T04:59:50;13.00;97.10
55634;DHT22;41504;53.162;6.788;2023-05-10T05:02:16;12.90;97.00
55634;DHT22;41504;53.162;6.788;2023-05-10T05:04:42;12.90;97.10
55634;DHT22;41504;53.162;6.788;2023-05-10T05:07:07;12.80;97.10
55634;DHT22;41504;53.162;6.788;2023-05-10T05:09:33;12.90;97.20
55634;DHT22;41504;53.162;6.788;2023-05-10T05:11:59;12.90;97.20
55634;DHT22;41504;53.162;6.788;2023-05-10T05:14:24;12.90;97.30
55634;DHT22;41504;53.162;6.788;2023-05-10T05:16:53;12.90;97.20
55634;DHT22;41504;53.162;6.788;2023-05-10T05:19:19;12.80;97.30
55634;DHT22;41504;53.162;6.788;2023-05-10T05:21:45;12.80;97.30
55634;DHT22;41504;53.162;6.788;2023-05-10T05:24:10;12.80;97.30
55634;DHT22;41504;53.162;6.788;2023-05-10T05:26:38;12.80;97.30
55634;DHT22;41504;53.162;6.788;2023-05-10T05:29:04;12.80;97.30
55634;DHT22;41504;53.162;6.788;2023-05-10T05:31:29;12.80;97.30
55634;DHT22;41504;53.162;6.788;2023-05-10T05:33:55;12.80;97.30
55634;DHT22;41504;53.162;6.788;2023-05-10T05:36:21;12.70;97.20
55634;DHT22;41504;53.162;6.788;2023-05-10T05:38:47;12.70;97.20
55634;DHT22;41504;53.162;6.788;2023-05-10T05:41:13;12.60;97.30
55634;DHT22;41504;53.162;6.788;2023-05-10T05:43:38;12.60;97.40
55634;DHT22;41504;53.162;6.788;2023-05-10T05:46:05;12.60;97.40
55634;DHT22;41504;53.162;6.788;2023-05-10T05:48:31;12.60;97.40
55634;DHT22;41504;53.162;6.788;2023-05-10T05:50:57;12.60;97.50
55634;DHT22;41504;53.162;6.788;2023-05-10T05:53:23;12.50;97.50
55634;DHT22;41504;53.162;6.788;2023-05-10T05:55:56;12.50;97.60
55634;DHT22;41504;53.162;6.788;2023-05-10T05:58:23;12.50;97.60
55634;DHT22;41504;53.162;6.788;2023-05-10T06:00:50;12.50;97.70
55634;DHT22;41504;53.162;6.788;2023-05-10T06:03:17;12.50;97.70
55634;DHT22;41504;53.162;6.788;2023-05-10T06:05:43;12.50;97.90
55634;DHT22;41504;53.162;6.788;2023-05-10T06:08:09;12.40;97.80
55634;DHT22;41504;53.162;6.788;2023-05-10T06:10:35;12.50;97.90
55634;DHT22;41504;53.162;6.788;2023-05-10T06:13:01;12.40;97.90
55634;DHT22;41504;53.162;6.788;2023-05-10T06:15:27;12.50;97.90
55634;DHT22;41504;53.162;6.788;2023-05-10T06:17:53;12.50;98.00
55634;DHT22;41504;53.162;6.788;2023-05-10T06:20:18;12.50;98.00
55634;DHT22;41504;53.162;6.788;2023-05-10T06:22:44;12.50;98.00
55634;DHT22;41504;53.162;6.788;2023-05-10T06:25:10;12.60;98.00
55634;DHT22;41504;53.162;6.788;2023-05-10T06:27:36;12.60;98.00
55634;DHT22;41504;53.162;6.788;2023-05-10T06:30:02;12.60;98.00
55634;DHT22;41504;53.162;6.788;2023-05-10T06:32:28;12.60;98.00
55634;DHT22;41504;53.162;6.788;2023-05-10T06:34:54;12.60;98.00
55634;DHT22;41504;53.162;6.788;2023-05-10T06:37:19;12.60;98.00
55634;DHT22;41504;53.162;6.788;2023-05-10T06:39:45;12.60;97.90
55634;DHT22;41504;53.162;6.788;2023-05-10T06:42:11;12.70;98.00
55634;DHT22;41504;53.162;6.788;2023-05-10T06:44:37;12.60;98.00
55634;DHT22;41504;53.162;6.788;2023-05-10T06:47:02;12.70;98.10
55634;DHT22;41504;53.162;6.788;2023-05-10T06:49:28;12.70;98.00
55634;DHT22;41504;53.162;6.788;2023-05-10T06:51:55;12.60;98.10
55634;DHT22;41504;53.162;6.788;2023-05-10T06:54:21;12.60;98.10
55634;DHT22;41504;53.162;6.788;2023-05-10T06:56:47;12.60;98.20
55634;DHT22;41504;53.162;6.788;2023-05-10T06:59:12;12.60;98.20
55634;DHT22;41504;53.162;6.788;2023-05-10T07:01:39;12.60;98.10
55634;DHT22;41504;53.162;6.788;2023-05-10T07:04:05;12.60;98.10
55634;DHT22;41504;53.162;6.788;2023-05-10T07:06:30;12.60;98.20
55634;DHT22;41504;53.162;6.788;2023-05-10T07:08:56;12.50;98.20
55634;DHT22;41504;53.162;6.788;2023-05-10T07:11:22;12.50;98.20
55634;DHT22;41504;53.162;6.788;2023-05-10T07:13:48;12.50;98.10
55634;DHT22;41504;53.162;6.788;2023-05-10T07:16:13;12.50;98.10
55634;DHT22;41504;53.162;6.788;2023-05-10T07:18:39;12.50;98.20
55634;DHT22;41504;53.162;6.788;2023-05-10T07:21:05;12.40;98.30
55634;DHT22;41504;53.162;6.788;2023-05-10T07:23:31;12.40;98.40
55634;DHT22;41504;53.162;6.788;2023-05-10T07:25:57;12.40;98.30
55634;DHT22;41504;53.162;6.788;2023-05-10T07:28:23;12.40;98.40
55634;DHT22;41504;53.162;6.788;2023-05-10T07:30:49;12.40;98.40
55634;DHT22;41504;53.162;6.788;2023-05-10T07:33:16;12.40;98.40
55634;DHT22;41504;53.162;6.788;2023-05-10T07:35:42;12.40;98.30
55634;DHT22;41504;53.162;6.788;2023-05-10T07:38:07;12.40;98.20
55634;DHT22;41504;53.162;6.788;2023-05-10T07:40:33;12.40;98.30
55634;DHT22;41504;53.162;6.788;2023-05-10T07:42:59;12.40;98.40
55634;DHT22;41504;53.162;6.788;2023-05-10T07:45:28;12.40;98.30
55634;DHT22;41504;53.162;6.788;2023-05-10T07:47:54;12.40;98.30
55634;DHT22;41504;53.162;6.788;2023-05-10T07:50:19;12.30;98.30
55634;DHT22;41504;53.162;6.788;2023-05-10T07:52:47;12.30;98.40
55634;DHT22;41504;53.162;6.788;2023-05-10T07:55:14;12.30;98.30
55634;DHT22;41504;53.162;6.788;2023-05-10T07:57:40;12.40;98.40
55634;DHT22;41504;53.162;6.788;2023-05-10T08:00:06;12.40;98.30
55634;DHT22;41504;53.162;6.788;2023-05-10T08:02:34;12.40;98.20
55634;DHT22;41504;53.162;6.788;2023-05-10T08:05:00;12.40;98.20
55634;DHT22;41504;53.162;6.788;2023-05-10T08:07:26;12.40;98.20
55634;DHT22;41504;53.162;6.788;2023-05-10T08:09:51;12.50;98.20
55634;DHT22;41504;53.162;6.788;2023-05-10T08:12:17;12.50;98.20
55634;DHT22;41504;53.162;6.788;2023-05-10T08:14:43;12.50;98.20
55634;DHT22;41504;53.162;6.788;2023-05-10T08:17:09;12.50;98.20
55634;DHT22;41504;53.162;6.788;2023-05-10T08:19:34;12.50;98.20
55634;DHT22;41504;53.162;6.788;2023-05-10T08:22:00;12.60;98.20
55634;DHT22;41504;53.162;6.788;2023-05-10T08:24:26;12.60;98.10
55634;DHT22;41504;53.162;6.788;2023-05-10T08:26:52;12.60;98.10
55634;DHT22;41504;53.162;6.788;2023-05-10T08:29:18;12.60;98.10
55634;DHT22;41504;53.162;6.788;2023-05-10T08:31:43;12.70;98.20
55634;DHT22;41504;53.162;6.788;2023-05-10T08:34:09;12.70;98.00
55634;DHT22;41504;53.162;6.788;2023-05-10T08:36:35;12.70;98.20
55634;DHT22;41504;53.162;6.788;2023-05-10T08:39:01;12.70;98.20
55634;DHT22;41504;53.162;6.788;2023-05-10T08:41:27;12.70;98.30
55634;DHT22;41504;53.162;6.788;2023-05-10T08:43:54;12.80;98.30
55634;DHT22;41504;53.162;6.788;2023-05-10T08:46:21;12.70;98.30
55634;DHT22;41504;53.162;6.788;2023-05-10T08:48:48;12.80;98.30
55634;DHT22;41504;53.162;6.788;2023-05-10T08:51:18;12.80;98.40
55634;DHT22;41504;53.162;6.788;2023-05-10T08:53:45;12.80;98.40
55634;DHT22;41504;53.162;6.788;2023-05-10T08:56:11;12.70;98.40
55634;DHT22;41504;53.162;6.788;2023-05-10T08:58:37;12.80;98.50
55634;DHT22;41504;53.162;6.788;2023-05-10T09:01:04;12.80;98.40
55634;DHT22;41504;53.162;6.788;2023-05-10T09:03:30;12.80;98.30
55634;DHT22;41504;53.162;6.788;2023-05-10T09:05:56;12.70;98.30
55634;DHT22;41504;53.162;6.788;2023-05-10T09:08:26;12.70;98.40
55634;DHT22;41504;53.162;6.788;2023-05-10T09:10:53;12.70;98.40
55634;DHT22;41504;53.162;6.788;2023-05-10T09:13:19;12.70;98.40
55634;DHT22;41504;53.162;6.788;2023-05-10T09:15:47;12.70;98.30
55634;DHT22;41504;53.162;6.788;2023-05-10T09:18:13;12.70;98.20
55634;DHT22;41504;53.162;6.788;2023-05-10T09:20:40;12.70;98.30
55634;DHT22;41504;53.162;6.788;2023-05-10T09:23:06;12.70;98.30
55634;DHT22;41504;53.162;6.788;2023-05-10T09:25:32;12.70;98.30
55634;DHT22;41504;53.162;6.788;2023-05-10T09:28:00;12.70;98.30
55634;DHT22;41504;53.162;6.788;2023-05-10T09:30:30;12.70;98.30
55634;DHT22;41504;53.162;6.788;2023-05-10T09:32:57;12.70;98.30
55634;DHT22;41504;53.162;6.788;2023-05-10T09:35:25;12.80;98.20
55634;DHT22;41504;53.162;6.788;2023-05-10T09:37:54;12.80;98.10
55634;DHT22;41504;53.162;6.788;2023-05-10T09:40:22;12.80;98.20
55634;DHT22;41504;53.162;6.788;2023-05-10T09:43:06;12.80;98.20
55634;DHT22;41504;53.162;6.788;2023-05-10T09:45:34;12.90;98.30
55634;DHT22;41504;53.162;6.788;2023-05-10T09:48:01;12.90;98.10
55634;DHT22;41504;53.162;6.788;2023-05-10T09:50:28;12.90;98.10
55634;DHT22;41504;53.162;6.788;2023-05-10T09:52:55;12.90;98.10
55634;DHT22;41504;53.162;6.788;2023-05-10T09:55:26;13.00;98.20
55634;DHT22;41504;53.162;6.788;2023-05-10T09:58:01;13.00;98.10
55634;DHT22;41504;53.162;6.788;2023-05-10T10:00:28;13.00;98.10
55634;DHT22;41504;53.162;6.788;2023-05-10T10:02:55;13.10;98.10
55634;DHT22;41504;53.162;6.788;2023-05-10T10:05:28;13.10;98.00
55634;DHT22;41504;53.162;6.788;2023-05-10T10:07:54;13.20;98.10
55634;DHT22;41504;53.162;6.788;2023-05-10T10:10:21;13.20;98.10
55634;DHT22;41504;53.162;6.788;2023-05-10T10:12:48;13.30;98.00
55634;DHT22;41504;53.162;6.788;2023-05-10T10:15:14;13.40;98.00
55634;DHT22;41504;53.162;6.788;2023-05-10T10:17:41;13.40;97.70
55634;DHT22;41504;53.162;6.788;2023-05-10T10:20:09;13.40;97.80
55634;DHT22;41504;53.162;6.788;2023-05-10T10:22:36;13.50;97.80
55634;DHT22;41504;53.162;6.788;2023-05-10T10:25:02;13.60;97.90
55634;DHT22;41504;53.162;6.788;2023-05-10T10:27:43;13.70;97.80
55634;DHT22;41504;53.162;6.788;2023-05-10T10:30:13;13.70;97.50
55634;DHT22;41504;53.162;6.788;2023-05-10T10:35:15;13.70;97.40
55634;DHT22;41504;53.162;6.788;2023-05-10T10:37:44;13.70;97.30
55634;DHT22;41504;53.162;6.788;2023-05-10T10:40:30;13.70;97.20
55634;DHT22;41504;53.162;6.788;2023-05-10T10:42:57;13.70;97.10
55634;DHT22;41504;53.162;6.788;2023-05-10T10:45:24;13.60;97.20
55634;DHT22;41504;53.162;6.788;2023-05-10T10:50:45;13.70;97.40
55634;DHT22;41504;53.162;6.788;2023-05-10T10:53:11;13.80;97.20
55634;DHT22;41504;53.162;6.788;2023-05-10T10:55:46;13.80;97.20
55634;DHT22;41504;53.162;6.788;2023-05-10T10:58:29;13.90;96.90
55634;DHT22;41504;53.162;6.788;2023-05-10T11:03:37;14.00;96.60
55634;DHT22;41504;53.162;6.788;2023-05-10T11:06:03;14.10;96.90
55634;DHT22;41504;53.162;6.788;2023-05-10T11:08:33;14.10;96.60
55634;DHT22;41504;53.162;6.788;2023-05-10T11:13:32;14.10;96.50
55634;DHT22;41504;53.162;6.788;2023-05-10T11:15:58;14.10;96.50
55634;DHT22;41504;53.162;6.788;2023-05-10T11:18:29;14.20;96.60
55634;DHT22;41504;53.162;6.788;2023-05-10T11:21:00;14.20;96.50
55634;DHT22;41504;53.162;6.788;2023-05-10T11:23:51;14.30;96.30
55634;DHT22;41504;53.162;6.788;2023-05-10T11:26:17;14.30;96.10
55634;DHT22;41504;53.162;6.788;2023-05-10T11:28:44;14.30;96.20
55634;DHT22;41504;53.162;6.788;2023-05-10T11:31:13;14.30;96.10
55634;DHT22;41504;53.162;6.788;2023-05-10T11:33:46;14.30;95.90
55634;DHT22;41504;53.162;6.788;2023-05-10T11:36:13;14.30;95.80
55634;DHT22;41504;53.162;6.788;2023-05-10T11:38:39;14.30;95.40
55634;DHT22;41504;53.162;6.788;2023-05-10T11:41:05;14.20;95.90
55634;DHT22;41504;53.162;6.788;2023-05-10T11:43:30;14.30;95.80
55634;DHT22;41504;53.162;6.788;2023-05-10T11:45:56;14.40;95.60
55634;DHT22;41504;53.162;6.788;2023-05-10T11:48:22;14.40;95.70
55634;DHT22;41504;53.162;6.788;2023-05-10T11:50:49;14.40;95.60
55634;DHT22;41504;53.162;6.788;2023-05-10T11:53:15;14.40;95.40
55634;DHT22;41504;53.162;6.788;2023-05-10T11:55:41;14.40;95.50
55634;DHT22;41504;53.162;6.788;2023-05-10T11:58:06;14.40;95.60
55634;DHT22;41504;53.162;6.788;2023-05-10T12:00:32;14.40;95.50
55634;DHT22;41504;53.162;6.788;2023-05-10T12:03:00;14.40;95.50
55634;DHT22;41504;53.162;6.788;2023-05-10T12:05:26;14.40;95.40
55634;DHT22;41504;53.162;6.788;2023-05-10T12:07:52;14.50;95.00
55634;DHT22;41504;53.162;6.788;2023-05-10T12:10:25;14.50;94.70
55634;DHT22;41504;53.162;6.788;2023-05-10T12:12:52;14.50;94.50
55634;DHT22;41504;53.162;6.788;2023-05-10T12:15:20;14.50;94.40
55634;DHT22;41504;53.162;6.788;2023-05-10T12:17:46;14.50;94.30
55634;DHT22;41504;53.162;6.788;2023-05-10T12:20:26;14.50;94.50
55634;DHT22;41504;53.162;6.788;2023-05-10T12:22:57;14.50;94.60
55634;DHT22;41504;53.162;6.788;2023-05-10T12:25:23;14.50;94.60
55634;DHT22;41504;53.162;6.788;2023-05-10T12:27:57;14.50;94.60
55634;DHT22;41504;53.162;6.788;2023-05-10T12:30:31;14.50;94.80
55634;DHT22;41504;53.162;6.788;2023-05-10T12:33:08;14.50;94.80
55634;DHT22;41504;53.162;6.788;2023-05-10T12:35:46;14.50;95.10
55634;DHT22;41504;53.162;6.788;2023-05-10T12:38:35;14.40;94.90
55634;DHT22;41504;53.162;6.788;2023-05-10T12:41:04;14.40;95.10
55634;DHT22;41504;53.162;6.788;2023-05-10T12:43:32;14.50;95.30
55634;DHT22;41504;53.162;6.788;2023-05-10T12:45:58;14.50;95.30
55634;DHT22;41504;53.162;6.788;2023-05-10T12:48:24;14.60;95.20
55634;DHT22;41504;53.162;6.788;2023-05-10T12:50:50;14.60;95.10
55634;DHT22;41504;53.162;6.788;2023-05-10T12:53:16;14.60;95.00
55634;DHT22;41504;53.162;6.788;2023-05-10T12:55:43;14.60;94.90
55634;DHT22;41504;53.162;6.788;2023-05-10T12:58:09;14.70;94.80
55634;DHT22;41504;53.162;6.788;2023-05-10T13:00:35;14.70;94.40
55634;DHT22;41504;53.162;6.788;2023-05-10T13:03:00;14.70;94.40
55634;DHT22;41504;53.162;6.788;2023-05-10T13:05:26;14.70;94.10
55634;DHT22;41504;53.162;6.788;2023-05-10T13:07:52;14.70;93.80
55634;DHT22;41504;53.162;6.788;2023-05-10T13:10:17;14.70;93.70
55634;DHT22;41504;53.162;6.788;2023-05-10T13:12:43;14.70;93.70
55634;DHT22;41504;53.162;6.788;2023-05-10T13:15:09;14.70;93.90
55634;DHT22;41504;53.162;6.788;2023-05-10T13:17:35;14.60;93.50
55634;DHT22;41504;53.162;6.788;2023-05-10T13:20:00;14.70;93.70
55634;DHT22;41504;53.162;6.788;2023-05-10T13:22:26;14.70;93.60
55634;DHT22;41504;53.162;6.788;2023-05-10T13:24:52;14.80;93.60
55634;DHT22;41504;53.162;6.788;2023-05-10T13:27:17;14.80;93.60
55634;DHT22;41504;53.162;6.788;2023-05-10T13:29:43;14.80;93.30
55634;DHT22;41504;53.162;6.788;2023-05-10T13:32:09;14.80;93.30
55634;DHT22;41504;53.162;6.788;2023-05-10T13:34:34;14.90;93.20
55634;DHT22;41504;53.162;6.788;2023-05-10T13:37:01;14.90;93.30
55634;DHT22;41504;53.162;6.788;2023-05-10T13:39:27;14.90;93.50
55634;DHT22;41504;53.162;6.788;2023-05-10T13:41:52;15.00;93.40
55634;DHT22;41504;53.162;6.788;2023-05-10T13:44:20;15.00;93.30
55634;DHT22;41504;53.162;6.788;2023-05-10T13:46:46;15.00;93.30
55634;DHT22;41504;53.162;6.788;2023-05-10T13:49:12;15.10;93.20
55634;DHT22;41504;53.162;6.788;2023-05-10T13:51:37;15.00;93.00
55634;DHT22;41504;53.162;6.788;2023-05-10T13:54:03;15.10;92.90
55634;DHT22;41504;53.162;6.788;2023-05-10T13:56:29;15.00;92.90
55634;DHT22;41504;53.162;6.788;2023-05-10T13:58:56;15.00;93.10
55634;DHT22;41504;53.162;6.788;2023-05-10T14:01:23;14.90;93.00
55634;DHT22;41504;53.162;6.788;2023-05-10T14:03:48;14.80;93.00
55634;DHT22;41504;53.162;6.788;2023-05-10T14:06:14;14.70;93.40
55634;DHT22;41504;53.162;6.788;2023-05-10T14:08:40;14.70;93.00
55634;DHT22;41504;53.162;6.788;2023-05-10T14:11:06;14.60;93.00
55634;DHT22;41504;53.162;6.788;2023-05-10T14:13:32;14.50;93.30
55634;DHT22;41504;53.162;6.788;2023-05-10T14:15:58;14.50;93.30
55634;DHT22;41504;53.162;6.788;2023-05-10T14:18:26;14.50;93.30
55634;DHT22;41504;53.162;6.788;2023-05-10T14:20:52;14.50;93.30
55634;DHT22;41504;53.162;6.788;2023-05-10T14:23:18;14.50;93.60
55634;DHT22;41504;53.162;6.788;2023-05-10T14:25:45;14.50;93.60
55634;DHT22;41504;53.162;6.788;2023-05-10T14:28:11;14.40;93.60
55634;DHT22;41504;53.162;6.788;2023-05-10T14:30:37;14.40;93.80
55634;DHT22;41504;53.162;6.788;2023-05-10T14:33:03;14.40;93.80
55634;DHT22;41504;53.162;6.788;2023-05-10T14:35:29;14.40;93.90
55634;DHT22;41504;53.162;6.788;2023-05-10T14:37:56;14.40;93.80
55634;DHT22;41504;53.162;6.788;2023-05-10T14:40:23;14.40;93.90
55634;DHT22;41504;53.162;6.788;2023-05-10T14:42:49;14.40;93.90
55634;DHT22;41504;53.162;6.788;2023-05-10T14:45:15;14.50;93.80
55634;DHT22;41504;53.162;6.788;2023-05-10T14:47:41;14.50;93.90
55634;DHT22;41504;53.162;6.788;2023-05-10T14:50:07;14.50;93.90
55634;DHT22;41504;53.162;6.788;2023-05-10T14:52:33;14.60;93.80
55634;DHT22;41504;53.162;6.788;2023-05-10T14:54:58;14.60;93.80
55634;DHT22;41504;53.162;6.788;2023-05-10T14:57:25;14.60;93.70
55634;DHT22;41504;53.162;6.788;2023-05-10T14:59:51;14.60;93.70
55634;DHT22;41504;53.162;6.788;2023-05-10T15:02:17;14.70;93.70
55634;DHT22;41504;53.162;6.788;2023-05-10T15:04:42;14.70;93.70
55634;DHT22;41504;53.162;6.788;2023-05-10T15:07:08;14.80;93.50
55634;DHT22;41504;53.162;6.788;2023-05-10T15:09:34;14.80;93.40
55634;DHT22;41504;53.162;6.788;2023-05-10T15:11:59;14.90;93.40
55634;DHT22;41504;53.162;6.788;2023-05-10T15:14:25;15.00;93.30
55634;DHT22;41504;53.162;6.788;2023-05-10T15:16:51;15.10;93.20
55634;DHT22;41504;53.162;6.788;2023-05-10T15:19:17;15.20;93.10
55634;DHT22;41504;53.162;6.788;2023-05-10T15:21:43;15.30;92.90
55634;DHT22;41504;53.162;6.788;2023-05-10T15:24:09;15.30;92.60
55634;DHT22;41504;53.162;6.788;2023-05-10T15:26:35;15.30;92.30
55634;DHT22;41504;53.162;6.788;2023-05-10T15:29:01;15.40;91.90
55634;DHT22;41504;53.162;6.788;2023-05-10T15:31:27;15.40;91.50
55634;DHT22;41504;53.162;6.788;2023-05-10T15:33:57;15.40;91.70
55634;DHT22;41504;53.162;6.788;2023-05-10T15:36:24;15.50;91.50
55634;DHT22;41504;53.162;6.788;2023-05-10T15:38:50;15.50;91.50
55634;DHT22;41504;53.162;6.788;2023-05-10T15:41:16;15.50;91.40
55634;DHT22;41504;53.162;6.788;2023-05-10T15:43:42;15.60;91.20
55634;DHT22;41504;53.162;6.788;2023-05-10T15:46:08;15.60;91.30
55634;DHT22;41504;53.162;6.788;2023-05-10T15:48:33;15.60;91.40
55634;DHT22;41504;53.162;6.788;2023-05-10T15:50:59;15.60;91.40
55634;DHT22;41504;53.162;6.788;2023-05-10T15:53:25;15.60;91.30
55634;DHT22;41504;53.162;6.788;2023-05-10T15:55:51;15.60;91.30
55634;DHT22;41504;53.162;6.788;2023-05-10T15:58:17;15.50;91.30